Riverside, Massachusetts
Current Conditions -  °F | °C
As of 9:54 AM on Friday 19 Dec 2014 (Local Time) from KBOS Reporting Station
Broken Clouds Broken Clouds  
Wind Chill: 25°   Ceiling: 3200
Heat Index: 34°   Visibility: 10mi
Dew Point: 22°   Wind: 14mph
Humidity: 61%   Direction: 310°NW
Pressure: 29.96"   Gusts: NA
Location:  42.3527°N, 71.1872°W
Report Text: KBOS 191454Z 31012KT 10SM BKN032 BKN050 01/M06 A2996 RMK AO2 SLP146 T00111056 53019
Loading
Personal Weather Stations






























Interactive Weather Map New forecast layout! Learn more

10-Day Weather Forecast

Advertisements
Track Severe Weather on mobile